createdAt,value
2022-12-24T00:03:24.918Z,27.27
2022-12-24T00:08:28.488Z,23.73
2022-12-24T00:13:32.103Z,24.03
2022-12-24T00:18:38.692Z,22.23
2022-12-24T00:23:47.143Z,25.43
2022-12-24T00:28:50.828Z,24.77
2022-12-24T00:33:54.404Z,23.93
2022-12-24T00:38:58.055Z,23.57
2022-12-24T00:44:06.284Z,24.73
2022-12-24T00:49:11.783Z,21.60
2022-12-24T00:54:15.561Z,20.07
2022-12-24T00:59:19.002Z,19.60
2022-12-24T01:04:40.746Z,18.90
2022-12-24T01:09:44.278Z,19.40
2022-12-24T01:14:47.601Z,19.23
2022-12-24T01:19:51.422Z,19.73
2022-12-24T01:24:54.606Z,19.50
2022-12-24T01:29:58.744Z,23.37
2022-12-24T01:35:02.236Z,26.17
2022-12-24T01:40:28.892Z,21.60
2022-12-24T01:45:38.245Z,24.57
2022-12-24T01:50:41.729Z,22.37
2022-12-24T01:55:46.884Z,23.80
2022-12-24T02:00:50.424Z,21.93
2022-12-24T02:05:56.420Z,21.83
2022-12-24T02:11:00.031Z,21.47
2022-12-24T02:16:27.827Z,20.80
2022-12-24T02:21:33.733Z,20.47
2022-12-24T02:27:00.044Z,19.80
2022-12-24T02:32:09.622Z,19.00
2022-12-24T02:37:26.805Z,17.03
2022-12-24T02:42:38.829Z,17.10
2022-12-24T02:47:44.342Z,14.13
2022-12-24T02:52:48.701Z,13.00
2022-12-24T02:58:22.596Z,13.23
2022-12-24T03:04:02.397Z,13.27
2022-12-24T03:09:34.229Z,11.87
2022-12-24T03:14:40.053Z,12.70
2022-12-24T03:19:43.783Z,12.40
2022-12-24T03:24:47.087Z,10.57
2022-12-24T03:29:50.304Z,12.80
2022-12-24T03:34:53.564Z,11.23
2022-12-24T03:39:57.002Z,12.67
2022-12-24T03:45:00.596Z,13.70
2022-12-24T03:50:04.182Z,12.70
2022-12-24T03:55:08.064Z,12.53
2022-12-24T04:00:11.742Z,12.83
2022-12-24T04:05:21.131Z,11.87
2022-12-24T04:10:24.566Z,11.33
2022-12-24T04:15:28.028Z,11.63
2022-12-24T04:20:31.526Z,13.40
2022-12-24T04:25:35.562Z,11.53
2022-12-24T04:30:42.981Z,10.73
2022-12-24T04:35:46.402Z,11.50
2022-12-24T04:40:49.850Z,12.13
2022-12-24T04:45:53.379Z,13.03
2022-12-24T04:50:57.088Z,11.13
2022-12-24T04:56:00.805Z,13.20
2022-12-24T05:01:09.253Z,14.13
2022-12-24T05:06:17.678Z,13.53
2022-12-24T05:11:21.137Z,13.43
2022-12-24T05:16:25.252Z,13.57
2022-12-24T05:21:28.567Z,13.40
2022-12-24T05:26:34.639Z,12.97
2022-12-24T05:31:40.663Z,13.93
2022-12-24T05:36:44.850Z,13.03
2022-12-24T05:41:48.614Z,9.73
2022-12-24T05:46:52.509Z,13.63
2022-12-24T05:51:55.685Z,12.23
2022-12-24T05:56:59.112Z,12.10
2022-12-24T06:02:02.664Z,11.83
2022-12-24T06:07:06.197Z,12.00
2022-12-24T06:12:09.737Z,13.70
2022-12-24T06:17:13.170Z,11.53
2022-12-24T06:22:16.828Z,11.80
2022-12-24T06:27:20.214Z,12.47
2022-12-24T06:32:23.496Z,12.50
2022-12-24T06:37:26.855Z,11.27
2022-12-24T06:42:30.059Z,11.47
2022-12-24T06:47:33.458Z,10.30
2022-12-24T06:52:37.202Z,11.27
2022-12-24T06:57:41.103Z,11.43
2022-12-24T07:02:45.114Z,10.07
2022-12-24T07:07:49.049Z,10.57
2022-12-24T07:12:52.256Z,10.63
2022-12-24T07:17:55.666Z,11.37
2022-12-24T07:22:58.833Z,9.87
2022-12-24T07:28:02.045Z,11.20
2022-12-24T07:33:05.326Z,11.03
2022-12-24T07:38:10.293Z,12.90
2022-12-24T07:43:14.417Z,12.20
2022-12-24T07:48:17.690Z,12.87
2022-12-24T07:53:21.286Z,13.10
2022-12-24T07:58:25.562Z,11.50
2022-12-24T08:03:29.601Z,11.67
2022-12-24T08:08:33.136Z,12.80
2022-12-24T08:13:36.616Z,11.27
2022-12-24T08:18:39.905Z,11.33
2022-12-24T08:23:43.405Z,11.93
2022-12-24T08:28:46.893Z,10.23
2022-12-24T08:33:50.071Z,11.70
2022-12-24T08:38:53.343Z,11.27
2022-12-24T08:43:56.578Z,11.53
2022-12-24T08:49:00.016Z,10.30
2022-12-24T08:54:03.602Z,11.77
2022-12-24T08:59:06.887Z,12.17
2022-12-24T09:04:10.349Z,13.57
2022-12-24T09:09:14.379Z,14.73
2022-12-24T09:14:17.663Z,13.73
2022-12-24T09:19:28.180Z,12.20
2022-12-24T09:24:35.967Z,13.70
2022-12-24T09:29:41.653Z,14.97
2022-12-24T09:34:45.708Z,9.97
2022-12-24T09:39:49.427Z,15.40
2022-12-24T09:45:07.215Z,14.03
2022-12-24T09:51:27.405Z,14.00
2022-12-24T09:56:50.094Z,12.40
2022-12-24T10:01:56.270Z,16.23
2022-12-24T10:07:34.281Z,16.70
2022-12-24T10:13:08.741Z,16.20
2022-12-24T10:18:35.613Z,20.33
2022-12-24T10:24:03.467Z,17.53
2022-12-24T10:29:26.857Z,15.27
2022-12-24T10:34:35.180Z,15.27
2022-12-24T10:39:39.006Z,15.70
2022-12-24T10:44:42.436Z,17.47
2022-12-24T10:50:07.952Z,17.43
2022-12-24T10:55:20.845Z,15.00
2022-12-24T11:00:28.601Z,15.10
2022-12-24T11:05:37.836Z,15.30
2022-12-24T11:10:45.557Z,17.40
2022-12-24T11:15:53.148Z,18.03
2022-12-24T11:21:00.193Z,17.53
2022-12-24T11:26:04.035Z,15.60
2022-12-24T11:31:19.978Z,14.70
2022-12-24T11:36:26.953Z,17.50
2022-12-24T11:41:38.003Z,16.80
2022-12-24T11:46:46.773Z,16.47
2022-12-24T11:52:12.798Z,18.37
2022-12-24T11:57:21.462Z,17.60
2022-12-24T12:02:31.088Z,20.13
2022-12-24T12:07:37.578Z,18.27
2022-12-24T12:12:55.553Z,17.50
2022-12-24T12:18:16.683Z,16.33
2022-12-24T12:23:39.021Z,17.40
2022-12-24T12:28:46.755Z,16.17
2022-12-24T12:33:57.728Z,19.97
2022-12-24T12:39:02.323Z,16.90
2022-12-24T12:44:25.913Z,16.30
2022-12-24T12:49:53.433Z,16.63
2022-12-24T12:55:32.114Z,17.33
2022-12-24T13:00:41.581Z,18.30
2022-12-24T13:06:26.863Z,18.07
2022-12-24T13:11:55.224Z,15.80
2022-12-24T13:17:41.420Z,14.97
2022-12-24T13:22:59.429Z,17.60
2022-12-24T13:28:21.183Z,19.73
2022-12-24T13:33:40.095Z,19.20
2022-12-24T13:38:53.104Z,18.90
2022-12-24T13:44:18.154Z,20.53
2022-12-24T13:49:36.674Z,22.37
2022-12-24T13:55:01.038Z,23.50
2022-12-24T14:00:22.294Z,22.30
2022-12-24T14:05:36.496Z,22.30
2022-12-24T14:10:56.803Z,22.67
2022-12-24T14:16:05.398Z,23.63
2022-12-24T14:21:22.966Z,22.73
2022-12-24T14:26:36.784Z,23.83
2022-12-24T14:31:59.070Z,23.40
2022-12-24T14:37:05.421Z,22.93
2022-12-24T14:42:28.096Z,25.57
2022-12-24T14:47:59.373Z,26.03
2022-12-24T14:53:38.124Z,26.63
2022-12-24T14:58:43.153Z,25.70
2022-12-24T15:03:48.116Z,26.47
2022-12-24T15:08:52.839Z,36.23
2022-12-24T15:14:04.727Z,48.67
2022-12-24T15:19:23.009Z,30.23
2022-12-24T15:24:32.826Z,25.80
2022-12-24T15:29:45.523Z,27.83
2022-12-24T15:34:51.032Z,28.27
2022-12-24T15:40:11.691Z,28.97
2022-12-24T15:45:28.960Z,38.60
2022-12-24T15:50:35.357Z,38.10
2022-12-24T15:55:46.534Z,31.47
2022-12-24T16:01:05.222Z,29.63
2022-12-24T16:06:12.114Z,26.50
2022-12-24T16:11:24.311Z,27.20
2022-12-24T16:16:37.670Z,27.17
2022-12-24T16:21:43.144Z,26.63
2022-12-24T16:26:47.384Z,27.70
2022-12-24T16:31:58.380Z,27.20
2022-12-24T16:37:02.190Z,25.47
2022-12-24T16:42:24.553Z,26.33
2022-12-24T16:47:41.799Z,28.27
2022-12-24T16:52:46.139Z,37.67
2022-12-24T16:57:49.492Z,30.53
2022-12-24T17:02:54.129Z,28.77
2022-12-24T17:08:01.404Z,36.43
2022-12-24T17:13:05.373Z,32.30
2022-12-24T17:18:08.856Z,29.33
2022-12-24T17:23:12.003Z,30.60
2022-12-24T17:28:18.038Z,29.83
2022-12-24T17:33:21.675Z,33.47
2022-12-24T17:38:24.775Z,33.17
2022-12-24T17:43:28.310Z,37.87
2022-12-24T17:48:31.776Z,31.97
2022-12-24T17:53:40.169Z,32.37
2022-12-24T17:58:45.591Z,30.60
2022-12-24T18:03:52.084Z,31.03
2022-12-24T18:08:56.659Z,32.97
2022-12-24T18:14:01.756Z,31.07
2022-12-24T18:19:06.942Z,33.00
2022-12-24T18:24:12.619Z,38.10
2022-12-24T18:29:17.403Z,34.30
2022-12-24T18:34:20.931Z,33.17
2022-12-24T18:39:24.520Z,34.03
2022-12-24T18:44:27.704Z,33.60
2022-12-24T18:49:31.159Z,35.57
2022-12-24T18:54:34.669Z,35.43
2022-12-24T18:59:39.468Z,38.07
2022-12-24T19:04:43.240Z,36.50
2022-12-24T19:09:48.789Z,34.07
2022-12-24T19:14:52.403Z,34.20
2022-12-24T19:19:56.645Z,35.23
2022-12-24T19:25:00.384Z,36.90
2022-12-24T19:30:05.272Z,33.17
2022-12-24T19:35:09.262Z,36.27
2022-12-24T19:40:13.619Z,35.93
2022-12-24T19:45:17.086Z,36.17
2022-12-24T19:50:21.736Z,36.87
2022-12-24T19:55:25.786Z,36.37
2022-12-24T20:00:29.329Z,34.60
2022-12-24T20:05:32.895Z,37.60
2022-12-24T20:10:45.922Z,31.73
2022-12-24T20:15:49.715Z,29.87
2022-12-24T20:20:53.592Z,29.10
2022-12-24T20:25:59.757Z,28.80
2022-12-24T20:31:14.266Z,31.97
2022-12-24T20:36:21.517Z,33.73
2022-12-24T20:41:27.966Z,28.87
2022-12-24T20:46:31.877Z,25.87
2022-12-24T20:51:35.815Z,26.70
2022-12-24T20:56:40.998Z,24.90
2022-12-24T21:01:45.485Z,25.43
2022-12-24T21:06:48.896Z,24.40
2022-12-24T21:11:53.267Z,25.40
2022-12-24T21:16:58.487Z,23.90
2022-12-24T21:22:03.455Z,24.87
2022-12-24T21:27:08.200Z,26.47
2022-12-24T21:32:13.517Z,23.83
2022-12-24T21:37:17.505Z,26.50
2022-12-24T21:42:21.316Z,28.23
2022-12-24T21:47:26.005Z,27.23
2022-12-24T21:52:30.817Z,27.33
2022-12-24T21:57:54.055Z,26.57
2022-12-24T22:02:59.194Z,28.10
2022-12-24T22:08:23.544Z,27.30
2022-12-24T22:13:29.928Z,27.93
2022-12-24T22:18:34.675Z,32.17
2022-12-24T22:23:42.237Z,30.33
2022-12-24T22:28:46.888Z,28.20
2022-12-24T22:33:50.494Z,37.40
2022-12-24T22:38:54.069Z,25.27
2022-12-24T22:43:58.409Z,25.30
2022-12-24T22:49:03.534Z,22.40
2022-12-24T22:54:07.290Z,22.10
2022-12-24T22:59:14.453Z,21.53
2022-12-24T23:04:17.762Z,22.10
2022-12-24T23:09:21.134Z,21.10
2022-12-24T23:14:43.332Z,21.27
2022-12-24T23:19:46.507Z,19.20
2022-12-24T23:24:49.658Z,19.37
2022-12-24T23:29:52.858Z,19.20
2022-12-24T23:34:56.349Z,19.50
2022-12-24T23:39:59.554Z,19.83
2022-12-24T23:45:02.938Z,42.03
2022-12-24T23:50:06.826Z,20.47
2022-12-24T23:55:10.406Z,19.73
